sensor_id;sensor_type;location;lat;lon;timestamp;P1;durP1;ratioP1;P2;durP2;ratioP2
24277;SDS011;12394;42.692;23.314;2024-01-16T00:01:11;19.20;;;14.23;;
24277;SDS011;12394;42.692;23.314;2024-01-16T00:03:38;19.00;;;13.23;;
24277;SDS011;12394;42.692;23.314;2024-01-16T00:06:03;22.13;;;14.10;;
24277;SDS011;12394;42.692;23.314;2024-01-16T00:08:29;21.37;;;13.13;;
24277;SDS011;12394;42.692;23.314;2024-01-16T00:10:54;22.97;;;14.30;;
24277;SDS011;12394;42.692;23.314;2024-01-16T00:13:20;19.67;;;12.80;;
24277;SDS011;12394;42.692;23.314;2024-01-16T00:15:45;18.87;;;13.87;;
24277;SDS011;12394;42.692;23.314;2024-01-16T00:18:11;18.63;;;12.70;;
24277;SDS011;12394;42.692;23.314;2024-01-16T00:20:36;20.60;;;13.03;;
24277;SDS011;12394;42.692;23.314;2024-01-16T00:23:02;19.63;;;12.77;;
24277;SDS011;12394;42.692;23.314;2024-01-16T00:25:27;21.33;;;13.97;;
24277;SDS011;12394;42.692;23.314;2024-01-16T00:27:54;19.70;;;13.47;;
24277;SDS011;12394;42.692;23.314;2024-01-16T00:30:20;18.00;;;11.73;;
24277;SDS011;12394;42.692;23.314;2024-01-16T00:32:45;21.00;;;14.07;;
24277;SDS011;12394;42.692;23.314;2024-01-16T00:35:11;22.83;;;12.43;;
24277;SDS011;12394;42.692;23.314;2024-01-16T00:37:37;16.33;;;11.87;;
24277;SDS011;12394;42.692;23.314;2024-01-16T00:40:03;18.77;;;11.70;;
24277;SDS011;12394;42.692;23.314;2024-01-16T00:42:30;17.83;;;11.57;;
24277;SDS011;12394;42.692;23.314;2024-01-16T00:44:58;17.27;;;11.53;;
24277;SDS011;12394;42.692;23.314;2024-01-16T00:47:23;16.17;;;10.03;;
24277;SDS011;12394;42.692;23.314;2024-01-16T00:49:49;16.13;;;11.20;;
24277;SDS011;12394;42.692;23.314;2024-01-16T00:52:15;14.80;;;10.43;;
24277;SDS011;12394;42.692;23.314;2024-01-16T00:54:40;19.67;;;11.00;;
24277;SDS011;12394;42.692;23.314;2024-01-16T00:57:07;16.90;;;10.57;;
24277;SDS011;12394;42.692;23.314;2024-01-16T00:59:32;16.17;;;11.03;;
24277;SDS011;12394;42.692;23.314;2024-01-16T01:01:58;19.83;;;12.60;;
24277;SDS011;12394;42.692;23.314;2024-01-16T01:04:23;30.73;;;19.37;;
24277;SDS011;12394;42.692;23.314;2024-01-16T01:06:48;16.00;;;11.13;;
24277;SDS011;12394;42.692;23.314;2024-01-16T01:09:15;15.80;;;11.10;;
24277;SDS011;12394;42.692;23.314;2024-01-16T01:11:42;16.37;;;11.07;;
24277;SDS011;12394;42.692;23.314;2024-01-16T01:14:07;17.47;;;11.57;;
24277;SDS011;12394;42.692;23.314;2024-01-16T01:16:33;16.90;;;11.13;;
24277;SDS011;12394;42.692;23.314;2024-01-16T01:18:59;19.33;;;11.70;;
24277;SDS011;12394;42.692;23.314;2024-01-16T01:21:25;16.57;;;11.23;;
24277;SDS011;12394;42.692;23.314;2024-01-16T01:23:50;18.50;;;11.53;;
24277;SDS011;12394;42.692;23.314;2024-01-16T01:26:16;15.40;;;10.50;;
24277;SDS011;12394;42.692;23.314;2024-01-16T01:28:43;16.57;;;10.93;;
24277;SDS011;12394;42.692;23.314;2024-01-16T01:31:11;16.83;;;10.63;;
24277;SDS011;12394;42.692;23.314;2024-01-16T01:33:37;15.40;;;10.13;;
24277;SDS011;12394;42.692;23.314;2024-01-16T01:36:02;14.97;;;10.10;;
24277;SDS011;12394;42.692;23.314;2024-01-16T01:38:28;16.17;;;10.83;;
24277;SDS011;12394;42.692;23.314;2024-01-16T01:40:53;17.60;;;10.53;;
24277;SDS011;12394;42.692;23.314;2024-01-16T01:43:20;15.07;;;9.87;;
24277;SDS011;12394;42.692;23.314;2024-01-16T01:48:42;15.43;;;10.07;;
24277;SDS011;12394;42.692;23.314;2024-01-16T01:51:09;13.87;;;9.80;;
24277;SDS011;12394;42.692;23.314;2024-01-16T01:53:37;14.47;;;10.10;;
24277;SDS011;12394;42.692;23.314;2024-01-16T01:56:04;15.57;;;10.47;;
24277;SDS011;12394;42.692;23.314;2024-01-16T01:58:33;17.53;;;10.23;;
24277;SDS011;12394;42.692;23.314;2024-01-16T02:01:02;17.10;;;10.40;;
24277;SDS011;12394;42.692;23.314;2024-01-16T02:03:32;13.53;;;9.00;;
24277;SDS011;12394;42.692;23.314;2024-01-16T02:06:04;13.23;;;9.67;;
24277;SDS011;12394;42.692;23.314;2024-01-16T02:08:30;12.87;;;9.63;;
24277;SDS011;12394;42.692;23.314;2024-01-16T02:10:56;16.67;;;11.33;;
24277;SDS011;12394;42.692;23.314;2024-01-16T02:13:22;16.43;;;10.23;;
24277;SDS011;12394;42.692;23.314;2024-01-16T02:15:48;15.43;;;9.93;;
24277;SDS011;12394;42.692;23.314;2024-01-16T02:18:15;12.03;;;9.27;;
24277;SDS011;12394;42.692;23.314;2024-01-16T02:20:41;16.93;;;10.83;;
24277;SDS011;12394;42.692;23.314;2024-01-16T02:23:07;14.17;;;9.90;;
24277;SDS011;12394;42.692;23.314;2024-01-16T02:25:34;20.30;;;10.20;;
24277;SDS011;12394;42.692;23.314;2024-01-16T02:28:01;14.23;;;9.63;;
24277;SDS011;12394;42.692;23.314;2024-01-16T02:30:27;15.27;;;10.20;;
24277;SDS011;12394;42.692;23.314;2024-01-16T02:32:52;15.87;;;9.57;;
24277;SDS011;12394;42.692;23.314;2024-01-16T02:35:18;13.43;;;9.47;;
24277;SDS011;12394;42.692;23.314;2024-01-16T02:37:43;15.23;;;9.80;;
24277;SDS011;12394;42.692;23.314;2024-01-16T02:40:09;16.27;;;10.03;;
24277;SDS011;12394;42.692;23.314;2024-01-16T02:42:35;15.13;;;9.67;;
24277;SDS011;12394;42.692;23.314;2024-01-16T02:45:02;14.60;;;9.53;;
24277;SDS011;12394;42.692;23.314;2024-01-16T02:47:29;16.70;;;11.07;;
24277;SDS011;12394;42.692;23.314;2024-01-16T02:49:55;15.97;;;9.23;;
24277;SDS011;12394;42.692;23.314;2024-01-16T02:52:20;12.57;;;8.70;;
24277;SDS011;12394;42.692;23.314;2024-01-16T02:54:46;15.03;;;10.27;;
24277;SDS011;12394;42.692;23.314;2024-01-16T02:57:11;15.40;;;9.57;;
24277;SDS011;12394;42.692;23.314;2024-01-16T02:59:37;13.83;;;10.03;;
24277;SDS011;12394;42.692;23.314;2024-01-16T03:02:03;14.50;;;9.57;;
24277;SDS011;12394;42.692;23.314;2024-01-16T03:04:29;12.40;;;8.37;;
24277;SDS011;12394;42.692;23.314;2024-01-16T03:06:54;12.80;;;9.43;;
24277;SDS011;12394;42.692;23.314;2024-01-16T03:09:20;11.87;;;7.73;;
24277;SDS011;12394;42.692;23.314;2024-01-16T03:11:45;11.37;;;8.20;;
24277;SDS011;12394;42.692;23.314;2024-01-16T03:14:11;7.30;;;4.77;;
24277;SDS011;12394;42.692;23.314;2024-01-16T03:16:38;5.63;;;3.07;;
24277;SDS011;12394;42.692;23.314;2024-01-16T03:19:04;4.13;;;3.23;;
24277;SDS011;12394;42.692;23.314;2024-01-16T03:21:29;4.47;;;3.43;;
24277;SDS011;12394;42.692;23.314;2024-01-16T03:23:55;5.43;;;3.93;;
24277;SDS011;12394;42.692;23.314;2024-01-16T03:26:20;3.97;;;3.57;;
24277;SDS011;12394;42.692;23.314;2024-01-16T03:28:46;4.97;;;3.93;;
24277;SDS011;12394;42.692;23.314;2024-01-16T03:31:14;4.37;;;3.93;;
24277;SDS011;12394;42.692;23.314;2024-01-16T03:33:40;4.30;;;3.90;;
24277;SDS011;12394;42.692;23.314;2024-01-16T03:36:07;5.07;;;3.87;;
24277;SDS011;12394;42.692;23.314;2024-01-16T03:38:35;5.33;;;3.83;;
24277;SDS011;12394;42.692;23.314;2024-01-16T03:41:02;5.90;;;4.47;;
24277;SDS011;12394;42.692;23.314;2024-01-16T03:43:29;4.47;;;3.97;;
24277;SDS011;12394;42.692;23.314;2024-01-16T03:45:57;4.97;;;4.13;;
24277;SDS011;12394;42.692;23.314;2024-01-16T03:48:23;5.07;;;3.80;;
24277;SDS011;12394;42.692;23.314;2024-01-16T03:50:48;3.67;;;3.20;;
24277;SDS011;12394;42.692;23.314;2024-01-16T03:53:14;5.17;;;3.53;;
24277;SDS011;12394;42.692;23.314;2024-01-16T03:55:39;3.30;;;3.00;;
24277;SDS011;12394;42.692;23.314;2024-01-16T03:58:05;4.63;;;3.60;;
24277;SDS011;12394;42.692;23.314;2024-01-16T04:00:30;4.07;;;3.20;;
24277;SDS011;12394;42.692;23.314;2024-01-16T04:02:56;3.40;;;3.10;;
24277;SDS011;12394;42.692;23.314;2024-01-16T04:05:21;4.03;;;3.00;;
24277;SDS011;12394;42.692;23.314;2024-01-16T04:07:47;3.70;;;3.17;;
24277;SDS011;12394;42.692;23.314;2024-01-16T04:10:12;3.80;;;2.90;;
24277;SDS011;12394;42.692;23.314;2024-01-16T04:12:37;3.83;;;3.03;;
24277;SDS011;12394;42.692;23.314;2024-01-16T04:15:03;2.70;;;2.50;;
24277;SDS011;12394;42.692;23.314;2024-01-16T04:17:29;3.30;;;2.60;;
24277;SDS011;12394;42.692;23.314;2024-01-16T04:19:54;2.77;;;2.50;;
24277;SDS011;12394;42.692;23.314;2024-01-16T04:22:20;2.40;;;2.20;;
24277;SDS011;12394;42.692;23.314;2024-01-16T04:24:46;3.47;;;2.20;;
24277;SDS011;12394;42.692;23.314;2024-01-16T04:27:12;2.27;;;2.00;;
24277;SDS011;12394;42.692;23.314;2024-01-16T04:29:38;2.47;;;2.03;;
24277;SDS011;12394;42.692;23.314;2024-01-16T04:32:03;2.10;;;1.90;;
24277;SDS011;12394;42.692;23.314;2024-01-16T04:34:29;2.30;;;1.60;;
24277;SDS011;12394;42.692;23.314;2024-01-16T04:36:55;1.90;;;1.77;;
24277;SDS011;12394;42.692;23.314;2024-01-16T04:39:20;2.90;;;2.10;;
24277;SDS011;12394;42.692;23.314;2024-01-16T04:41:48;2.07;;;1.87;;
24277;SDS011;12394;42.692;23.314;2024-01-16T04:44:16;2.67;;;2.20;;
24277;SDS011;12394;42.692;23.314;2024-01-16T04:46:41;2.20;;;2.00;;
24277;SDS011;12394;42.692;23.314;2024-01-16T04:49:08;2.57;;;2.27;;
24277;SDS011;12394;42.692;23.314;2024-01-16T04:51:33;2.87;;;1.80;;
24277;SDS011;12394;42.692;23.314;2024-01-16T04:53:59;2.47;;;1.90;;
24277;SDS011;12394;42.692;23.314;2024-01-16T04:56:24;3.20;;;2.20;;
24277;SDS011;12394;42.692;23.314;2024-01-16T04:58:50;2.00;;;1.73;;
24277;SDS011;12394;42.692;23.314;2024-01-16T05:01:17;2.47;;;2.10;;
24277;SDS011;12394;42.692;23.314;2024-01-16T05:03:42;2.17;;;1.90;;
24277;SDS011;12394;42.692;23.314;2024-01-16T05:06:14;2.97;;;2.13;;
24277;SDS011;12394;42.692;23.314;2024-01-16T05:08:41;1.70;;;1.60;;
24277;SDS011;12394;42.692;23.314;2024-01-16T05:11:07;2.30;;;1.40;;
24277;SDS011;12394;42.692;23.314;2024-01-16T05:13:33;2.10;;;1.60;;
24277;SDS011;12394;42.692;23.314;2024-01-16T05:15:58;1.77;;;1.47;;
24277;SDS011;12394;42.692;23.314;2024-01-16T05:18:24;1.60;;;1.50;;
24277;SDS011;12394;42.692;23.314;2024-01-16T05:20:49;2.20;;;1.70;;
24277;SDS011;12394;42.692;23.314;2024-01-16T05:23:15;1.77;;;1.53;;
24277;SDS011;12394;42.692;23.314;2024-01-16T05:25:43;2.03;;;1.70;;
24277;SDS011;12394;42.692;23.314;2024-01-16T05:28:08;3.27;;;1.97;;
24277;SDS011;12394;42.692;23.314;2024-01-16T05:30:34;3.37;;;2.10;;
24277;SDS011;12394;42.692;23.314;2024-01-16T05:32:59;2.63;;;2.17;;
24277;SDS011;12394;42.692;23.314;2024-01-16T05:35:28;2.83;;;2.17;;
24277;SDS011;12394;42.692;23.314;2024-01-16T05:37:55;4.67;;;2.20;;
24277;SDS011;12394;42.692;23.314;2024-01-16T05:40:21;2.33;;;1.73;;
24277;SDS011;12394;42.692;23.314;2024-01-16T05:42:48;2.30;;;1.97;;
24277;SDS011;12394;42.692;23.314;2024-01-16T05:45:14;2.20;;;1.50;;
24277;SDS011;12394;42.692;23.314;2024-01-16T05:47:39;2.00;;;1.80;;
24277;SDS011;12394;42.692;23.314;2024-01-16T05:50:05;2.30;;;1.80;;
24277;SDS011;12394;42.692;23.314;2024-01-16T05:52:31;2.30;;;1.50;;
24277;SDS011;12394;42.692;23.314;2024-01-16T05:54:56;1.97;;;1.70;;
24277;SDS011;12394;42.692;23.314;2024-01-16T05:57:24;1.90;;;1.60;;
24277;SDS011;12394;42.692;23.314;2024-01-16T05:59:50;2.43;;;1.77;;
24277;SDS011;12394;42.692;23.314;2024-01-16T06:02:16;2.43;;;1.50;;
24277;SDS011;12394;42.692;23.314;2024-01-16T06:04:41;1.93;;;1.70;;
24277;SDS011;12394;42.692;23.314;2024-01-16T06:07:06;3.07;;;1.83;;
24277;SDS011;12394;42.692;23.314;2024-01-16T06:09:32;1.77;;;1.67;;
24277;SDS011;12394;42.692;23.314;2024-01-16T06:11:58;2.80;;;2.20;;
24277;SDS011;12394;42.692;23.314;2024-01-16T06:14:24;2.00;;;1.63;;
24277;SDS011;12394;42.692;23.314;2024-01-16T06:16:50;1.97;;;1.80;;
24277;SDS011;12394;42.692;23.314;2024-01-16T06:19:16;3.70;;;2.20;;
24277;SDS011;12394;42.692;23.314;2024-01-16T06:21:41;2.07;;;1.77;;
24277;SDS011;12394;42.692;23.314;2024-01-16T06:24:07;1.93;;;1.70;;
24277;SDS011;12394;42.692;23.314;2024-01-16T06:26:33;2.80;;;1.90;;
24277;SDS011;12394;42.692;23.314;2024-01-16T06:28:58;1.90;;;1.70;;
24277;SDS011;12394;42.692;23.314;2024-01-16T06:31:24;2.20;;;1.73;;
24277;SDS011;12394;42.692;23.314;2024-01-16T06:33:51;2.87;;;2.17;;
24277;SDS011;12394;42.692;23.314;2024-01-16T06:36:17;1.70;;;1.60;;
24277;SDS011;12394;42.692;23.314;2024-01-16T06:38:42;1.80;;;1.53;;
24277;SDS011;12394;42.692;23.314;2024-01-16T06:41:08;2.27;;;1.60;;
24277;SDS011;12394;42.692;23.314;2024-01-16T06:43:33;2.60;;;1.53;;
24277;SDS011;12394;42.692;23.314;2024-01-16T06:45:59;5.40;;;2.37;;
24277;SDS011;12394;42.692;23.314;2024-01-16T06:48:24;2.87;;;2.30;;
24277;SDS011;12394;42.692;23.314;2024-01-16T06:50:51;2.53;;;2.20;;
24277;SDS011;12394;42.692;23.314;2024-01-16T06:53:16;2.47;;;1.93;;
24277;SDS011;12394;42.692;23.314;2024-01-16T06:55:42;2.00;;;1.80;;
24277;SDS011;12394;42.692;23.314;2024-01-16T06:58:07;2.33;;;2.00;;
24277;SDS011;12394;42.692;23.314;2024-01-16T07:00:34;4.07;;;2.23;;
24277;SDS011;12394;42.692;23.314;2024-01-16T07:03:00;3.10;;;2.37;;
24277;SDS011;12394;42.692;23.314;2024-01-16T07:05:25;2.57;;;1.87;;
24277;SDS011;12394;42.692;23.314;2024-01-16T07:07:51;2.43;;;2.13;;
24277;SDS011;12394;42.692;23.314;2024-01-16T07:10:16;2.30;;;2.10;;
24277;SDS011;12394;42.692;23.314;2024-01-16T07:12:47;2.63;;;1.60;;
24277;SDS011;12394;42.692;23.314;2024-01-16T07:15:14;3.47;;;2.30;;
24277;SDS011;12394;42.692;23.314;2024-01-16T07:17:40;2.80;;;2.20;;
24277;SDS011;12394;42.692;23.314;2024-01-16T07:20:06;4.73;;;2.53;;
24277;SDS011;12394;42.692;23.314;2024-01-16T07:22:32;2.77;;;2.07;;
24277;SDS011;12394;42.692;23.314;2024-01-16T07:24:59;3.10;;;2.00;;
24277;SDS011;12394;42.692;23.314;2024-01-16T07:27:25;2.23;;;1.97;;
24277;SDS011;12394;42.692;23.314;2024-01-16T07:29:50;2.87;;;2.33;;
24277;SDS011;12394;42.692;23.314;2024-01-16T07:32:16;2.93;;;2.20;;
24277;SDS011;12394;42.692;23.314;2024-01-16T07:34:41;2.53;;;2.07;;
24277;SDS011;12394;42.692;23.314;2024-01-16T07:37:07;2.23;;;2.00;;
24277;SDS011;12394;42.692;23.314;2024-01-16T07:39:33;2.27;;;2.07;;
24277;SDS011;12394;42.692;23.314;2024-01-16T07:41:58;2.00;;;1.60;;
24277;SDS011;12394;42.692;23.314;2024-01-16T07:44:24;3.10;;;2.30;;
24277;SDS011;12394;42.692;23.314;2024-01-16T07:46:49;3.43;;;2.40;;
24277;SDS011;12394;42.692;23.314;2024-01-16T07:49:15;3.93;;;1.93;;
24277;SDS011;12394;42.692;23.314;2024-01-16T07:51:41;3.67;;;2.33;;
24277;SDS011;12394;42.692;23.314;2024-01-16T07:54:08;2.07;;;1.83;;
24277;SDS011;12394;42.692;23.314;2024-01-16T07:56:34;2.33;;;1.60;;
24277;SDS011;12394;42.692;23.314;2024-01-16T07:59:01;2.70;;;2.20;;
24277;SDS011;12394;42.692;23.314;2024-01-16T08:01:27;4.80;;;2.20;;
24277;SDS011;12394;42.692;23.314;2024-01-16T08:03:54;2.47;;;2.27;;
24277;SDS011;12394;42.692;23.314;2024-01-16T08:06:20;2.80;;;2.10;;
24277;SDS011;12394;42.692;23.314;2024-01-16T08:08:46;2.70;;;1.97;;
24277;SDS011;12394;42.692;23.314;2024-01-16T08:11:12;2.77;;;2.00;;
24277;SDS011;12394;42.692;23.314;2024-01-16T08:13:38;2.17;;;1.97;;
24277;SDS011;12394;42.692;23.314;2024-01-16T08:16:03;4.47;;;2.40;;
24277;SDS011;12394;42.692;23.314;2024-01-16T08:18:29;3.73;;;2.50;;
24277;SDS011;12394;42.692;23.314;2024-01-16T08:20:56;2.63;;;2.33;;
24277;SDS011;12394;42.692;23.314;2024-01-16T08:23:22;4.20;;;2.43;;
24277;SDS011;12394;42.692;23.314;2024-01-16T08:25:47;4.20;;;3.03;;
24277;SDS011;12394;42.692;23.314;2024-01-16T08:28:14;2.90;;;1.90;;
24277;SDS011;12394;42.692;23.314;2024-01-16T08:30:40;2.43;;;2.00;;
24277;SDS011;12394;42.692;23.314;2024-01-16T08:33:06;3.10;;;1.93;;
24277;SDS011;12394;42.692;23.314;2024-01-16T08:35:32;5.80;;;2.20;;
24277;SDS011;12394;42.692;23.314;2024-01-16T08:37:58;3.67;;;1.97;;
24277;SDS011;12394;42.692;23.314;2024-01-16T08:40:23;2.33;;;1.83;;
24277;SDS011;12394;42.692;23.314;2024-01-16T08:42:49;2.20;;;1.63;;
24277;SDS011;12394;42.692;23.314;2024-01-16T08:45:19;2.60;;;2.30;;
24277;SDS011;12394;42.692;23.314;2024-01-16T08:47:45;4.77;;;1.70;;
24277;SDS011;12394;42.692;23.314;2024-01-16T08:50:11;2.50;;;1.93;;
24277;SDS011;12394;42.692;23.314;2024-01-16T08:52:37;6.40;;;2.20;;
24277;SDS011;12394;42.692;23.314;2024-01-16T08:55:02;3.20;;;2.57;;
24277;SDS011;12394;42.692;23.314;2024-01-16T08:57:29;4.17;;;2.33;;
24277;SDS011;12394;42.692;23.314;2024-01-16T08:59:54;6.00;;;2.50;;
24277;SDS011;12394;42.692;23.314;2024-01-16T09:02:20;2.33;;;2.10;;
24277;SDS011;12394;42.692;23.314;2024-01-16T09:04:46;5.53;;;2.03;;
24277;SDS011;12394;42.692;23.314;2024-01-16T09:07:15;2.40;;;1.83;;
24277;SDS011;12394;42.692;23.314;2024-01-16T09:09:41;3.00;;;2.27;;
24277;SDS011;12394;42.692;23.314;2024-01-16T09:12:07;3.07;;;2.43;;
24277;SDS011;12394;42.692;23.314;2024-01-16T09:14:37;2.60;;;2.00;;
24277;SDS011;12394;42.692;23.314;2024-01-16T09:17:03;2.23;;;2.03;;
24277;SDS011;12394;42.692;23.314;2024-01-16T09:19:29;4.77;;;2.30;;
24277;SDS011;12394;42.692;23.314;2024-01-16T09:21:55;3.57;;;2.37;;
24277;SDS011;12394;42.692;23.314;2024-01-16T09:24:21;2.73;;;2.13;;
24277;SDS011;12394;42.692;23.314;2024-01-16T09:26:46;6.13;;;3.83;;
24277;SDS011;12394;42.692;23.314;2024-01-16T09:29:12;4.33;;;2.17;;
24277;SDS011;12394;42.692;23.314;2024-01-16T09:31:39;5.10;;;3.20;;
24277;SDS011;12394;42.692;23.314;2024-01-16T09:34:05;2.20;;;2.00;;
24277;SDS011;12394;42.692;23.314;2024-01-16T09:36:31;3.80;;;2.40;;
24277;SDS011;12394;42.692;23.314;2024-01-16T09:38:56;2.63;;;2.10;;
24277;SDS011;12394;42.692;23.314;2024-01-16T09:41:22;2.10;;;1.47;;
24277;SDS011;12394;42.692;23.314;2024-01-16T09:43:48;2.13;;;1.70;;
24277;SDS011;12394;42.692;23.314;2024-01-16T09:46:15;2.27;;;2.00;;
24277;SDS011;12394;42.692;23.314;2024-01-16T09:48:44;4.37;;;2.20;;
24277;SDS011;12394;42.692;23.314;2024-01-16T09:51:11;6.60;;;3.10;;
24277;SDS011;12394;42.692;23.314;2024-01-16T09:53:40;5.00;;;2.00;;
24277;SDS011;12394;42.692;23.314;2024-01-16T09:56:07;6.47;;;2.43;;
24277;SDS011;12394;42.692;23.314;2024-01-16T09:58:39;2.43;;;2.00;;
24277;SDS011;12394;42.692;23.314;2024-01-16T10:01:05;3.47;;;2.13;;
24277;SDS011;12394;42.692;23.314;2024-01-16T10:03:31;4.53;;;1.90;;
24277;SDS011;12394;42.692;23.314;2024-01-16T10:05:59;4.53;;;2.47;;
24277;SDS011;12394;42.692;23.314;2024-01-16T10:08:29;15.30;;;6.07;;
24277;SDS011;12394;42.692;23.314;2024-01-16T10:10:56;6.90;;;2.53;;
24277;SDS011;12394;42.692;23.314;2024-01-16T10:13:23;6.03;;;2.70;;
24277;SDS011;12394;42.692;23.314;2024-01-16T10:15:52;5.63;;;2.43;;
24277;SDS011;12394;42.692;23.314;2024-01-16T10:18:27;2.50;;;2.30;;
24277;SDS011;12394;42.692;23.314;2024-01-16T10:20:55;9.33;;;2.20;;
24277;SDS011;12394;42.692;23.314;2024-01-16T10:23:27;9.33;;;2.63;;
24277;SDS011;12394;42.692;23.314;2024-01-16T10:26:12;4.57;;;2.30;;
24277;SDS011;12394;42.692;23.314;2024-01-16T10:28:42;3.37;;;1.70;;
24277;SDS011;12394;42.692;23.314;2024-01-16T10:31:09;6.30;;;2.10;;
24277;SDS011;12394;42.692;23.314;2024-01-16T10:33:36;4.63;;;3.70;;
24277;SDS011;12394;42.692;23.314;2024-01-16T10:36:08;2.30;;;2.10;;
24277;SDS011;12394;42.692;23.314;2024-01-16T10:38:39;2.17;;;1.90;;
24277;SDS011;12394;42.692;23.314;2024-01-16T10:41:15;4.80;;;2.07;;
24277;SDS011;12394;42.692;23.314;2024-01-16T10:43:42;3.60;;;2.67;;
24277;SDS011;12394;42.692;23.314;2024-01-16T10:46:12;3.67;;;2.00;;
24277;SDS011;12394;42.692;23.314;2024-01-16T10:48:39;6.47;;;2.00;;
24277;SDS011;12394;42.692;23.314;2024-01-16T10:51:06;5.40;;;2.03;;
24277;SDS011;12394;42.692;23.314;2024-01-16T10:53:33;5.13;;;2.37;;
24277;SDS011;12394;42.692;23.314;2024-01-16T10:56:00;3.43;;;1.90;;
24277;SDS011;12394;42.692;23.314;2024-01-16T10:58:27;3.73;;;1.90;;
24277;SDS011;12394;42.692;23.314;2024-01-16T11:00:57;5.13;;;2.20;;
24277;SDS011;12394;42.692;23.314;2024-01-16T11:03:37;9.03;;;2.77;;
24277;SDS011;12394;42.692;23.314;2024-01-16T11:06:06;7.33;;;4.50;;
24277;SDS011;12394;42.692;23.314;2024-01-16T11:08:35;6.33;;;2.50;;
24277;SDS011;12394;42.692;23.314;2024-01-16T11:11:02;2.83;;;2.53;;
24277;SDS011;12394;42.692;23.314;2024-01-16T11:13:30;5.70;;;3.10;;
24277;SDS011;12394;42.692;23.314;2024-01-16T11:15:58;7.53;;;3.87;;
24277;SDS011;12394;42.692;23.314;2024-01-16T11:18:25;3.83;;;2.73;;
24277;SDS011;12394;42.692;23.314;2024-01-16T11:20:52;3.60;;;2.40;;
24277;SDS011;12394;42.692;23.314;2024-01-16T11:23:19;2.83;;;2.13;;
24277;SDS011;12394;42.692;23.314;2024-01-16T11:25:45;5.40;;;2.60;;
24277;SDS011;12394;42.692;23.314;2024-01-16T11:28:11;5.90;;;2.43;;
24277;SDS011;12394;42.692;23.314;2024-01-16T11:30:39;5.17;;;2.83;;
24277;SDS011;12394;42.692;23.314;2024-01-16T11:33:05;3.47;;;2.33;;
24277;SDS011;12394;42.692;23.314;2024-01-16T11:35:35;3.57;;;2.63;;
24277;SDS011;12394;42.692;23.314;2024-01-16T11:38:09;4.10;;;2.50;;
24277;SDS011;12394;42.692;23.314;2024-01-16T11:40:41;10.40;;;3.67;;
24277;SDS011;12394;42.692;23.314;2024-01-16T11:45:56;5.53;;;3.00;;
24277;SDS011;12394;42.692;23.314;2024-01-16T11:48:23;4.93;;;3.07;;
24277;SDS011;12394;42.692;23.314;2024-01-16T11:50:49;5.77;;;3.03;;
24277;SDS011;12394;42.692;23.314;2024-01-16T11:53:31;5.90;;;3.63;;
24277;SDS011;12394;42.692;23.314;2024-01-16T12:01:26;4.43;;;2.50;;
24277;SDS011;12394;42.692;23.314;2024-01-16T12:04:05;4.90;;;2.40;;
24277;SDS011;12394;42.692;23.314;2024-01-16T12:06:31;3.07;;;2.47;;
24277;SDS011;12394;42.692;23.314;2024-01-16T12:09:15;2.10;;;1.90;;
24277;SDS011;12394;42.692;23.314;2024-01-16T12:11:43;6.20;;;2.97;;
24277;SDS011;12394;42.692;23.314;2024-01-16T12:14:21;5.77;;;3.00;;
24277;SDS011;12394;42.692;23.314;2024-01-16T12:16:46;5.63;;;3.50;;
24277;SDS011;12394;42.692;23.314;2024-01-16T12:19:13;5.03;;;3.00;;
24277;SDS011;12394;42.692;23.314;2024-01-16T12:21:39;8.73;;;3.67;;
24277;SDS011;12394;42.692;23.314;2024-01-16T12:24:06;6.13;;;3.67;;
24277;SDS011;12394;42.692;23.314;2024-01-16T12:26:31;5.63;;;3.57;;
24277;SDS011;12394;42.692;23.314;2024-01-16T12:28:57;9.13;;;3.60;;
24277;SDS011;12394;42.692;23.314;2024-01-16T12:31:23;9.23;;;3.63;;
24277;SDS011;12394;42.692;23.314;2024-01-16T12:33:50;15.03;;;4.20;;
24277;SDS011;12394;42.692;23.314;2024-01-16T12:36:16;7.63;;;3.57;;
24277;SDS011;12394;42.692;23.314;2024-01-16T12:38:42;9.83;;;4.00;;
24277;SDS011;12394;42.692;23.314;2024-01-16T12:41:08;3.60;;;2.83;;
24277;SDS011;12394;42.692;23.314;2024-01-16T12:43:35;8.43;;;3.80;;
24277;SDS011;12394;42.692;23.314;2024-01-16T12:46:03;7.27;;;4.43;;
24277;SDS011;12394;42.692;23.314;2024-01-16T12:48:29;10.53;;;3.40;;
24277;SDS011;12394;42.692;23.314;2024-01-16T12:51:01;6.23;;;3.00;;
24277;SDS011;12394;42.692;23.314;2024-01-16T12:53:28;3.93;;;2.50;;
24277;SDS011;12394;42.692;23.314;2024-01-16T12:56:00;8.13;;;2.93;;
24277;SDS011;12394;42.692;23.314;2024-01-16T12:58:34;6.00;;;3.13;;
24277;SDS011;12394;42.692;23.314;2024-01-16T13:03:50;4.57;;;3.03;;
24277;SDS011;12394;42.692;23.314;2024-01-16T13:06:18;5.57;;;2.93;;
24277;SDS011;12394;42.692;23.314;2024-01-16T13:08:48;6.57;;;3.17;;
24277;SDS011;12394;42.692;23.314;2024-01-16T13:11:16;6.03;;;3.13;;
24277;SDS011;12394;42.692;23.314;2024-01-16T13:13:47;5.17;;;2.70;;
24277;SDS011;12394;42.692;23.314;2024-01-16T13:16:16;7.63;;;2.90;;
24277;SDS011;12394;42.692;23.314;2024-01-16T13:18:42;5.60;;;2.83;;
24277;SDS011;12394;42.692;23.314;2024-01-16T13:21:08;12.60;;;3.47;;
24277;SDS011;12394;42.692;23.314;2024-01-16T13:23:34;5.20;;;3.20;;
24277;SDS011;12394;42.692;23.314;2024-01-16T13:26:00;3.87;;;2.60;;
24277;SDS011;12394;42.692;23.314;2024-01-16T13:28:29;7.90;;;3.40;;
24277;SDS011;12394;42.692;23.314;2024-01-16T13:30:56;2.53;;;2.03;;
24277;SDS011;12394;42.692;23.314;2024-01-16T13:33:23;2.80;;;2.30;;
24277;SDS011;12394;42.692;23.314;2024-01-16T13:35:52;4.27;;;2.70;;
24277;SDS011;12394;42.692;23.314;2024-01-16T13:38:21;3.47;;;2.27;;
24277;SDS011;12394;42.692;23.314;2024-01-16T13:40:47;8.67;;;2.93;;
24277;SDS011;12394;42.692;23.314;2024-01-16T13:43:13;6.20;;;2.60;;
24277;SDS011;12394;42.692;23.314;2024-01-16T13:45:38;6.20;;;2.87;;
24277;SDS011;12394;42.692;23.314;2024-01-16T13:48:04;4.50;;;2.47;;
24277;SDS011;12394;42.692;23.314;2024-01-16T13:50:34;3.43;;;2.63;;
24277;SDS011;12394;42.692;23.314;2024-01-16T13:53:01;9.43;;;2.83;;
24277;SDS011;12394;42.692;23.314;2024-01-16T13:55:27;4.03;;;2.50;;
24277;SDS011;12394;42.692;23.314;2024-01-16T13:57:52;6.60;;;2.80;;
24277;SDS011;12394;42.692;23.314;2024-01-16T14:00:18;3.03;;;2.40;;
24277;SDS011;12394;42.692;23.314;2024-01-16T14:02:44;3.13;;;2.57;;
24277;SDS011;12394;42.692;23.314;2024-01-16T14:05:12;3.67;;;2.67;;
24277;SDS011;12394;42.692;23.314;2024-01-16T14:07:43;4.40;;;3.00;;
24277;SDS011;12394;42.692;23.314;2024-01-16T14:10:11;5.97;;;3.10;;
24277;SDS011;12394;42.692;23.314;2024-01-16T14:12:44;5.30;;;3.17;;
24277;SDS011;12394;42.692;23.314;2024-01-16T14:15:11;2.87;;;2.57;;
24277;SDS011;12394;42.692;23.314;2024-01-16T14:17:48;3.57;;;2.73;;
24277;SDS011;12394;42.692;23.314;2024-01-16T14:20:14;4.57;;;2.73;;
24277;SDS011;12394;42.692;23.314;2024-01-16T14:22:41;9.80;;;3.10;;
24277;SDS011;12394;42.692;23.314;2024-01-16T14:25:08;5.27;;;3.00;;
24277;SDS011;12394;42.692;23.314;2024-01-16T14:27:39;5.93;;;3.20;;
24277;SDS011;12394;42.692;23.314;2024-01-16T14:30:07;11.37;;;3.60;;
24277;SDS011;12394;42.692;23.314;2024-01-16T14:32:37;6.37;;;2.73;;
24277;SDS011;12394;42.692;23.314;2024-01-16T14:35:04;3.37;;;2.63;;
24277;SDS011;12394;42.692;23.314;2024-01-16T14:37:30;6.83;;;3.13;;
24277;SDS011;12394;42.692;23.314;2024-01-16T14:39:57;6.30;;;3.50;;